logo
App data

Alien Shooter

Your mission is simple: clear the base at all costs. You will be provided with explosives to help you gain access to the teleports from where thousands of pitiless creatures pour.
Store | Hub | SteamDB | Site
Developer: Sigma Team Inc. Publisher: Sigma Team Inc.
Genre: Action, Indie, RPG
Languages: English, Russian
Tags: Action (88), Shooter (72), Indie (52), RPG (38), Top-Down Shooter (38), Top-Down (38), Isometric (35), Singleplayer (33), Aliens (30), Gore (28), Classic (28), Sci-fi (17), Atmospheric (15), Masterpiece (14)
Category: Single-player, Steam Achievements, Steam Trading Cards, Steam Cloud, Steam Leaderboards
Release date: Sep 15, 2003
Price: $4.99
Old userscore: 92% Owners: 200,000 .. 500,000
Followers: 2,515
Peak concurrent players yesterday: 22
YouTube stats: 11,970 views and 147 comments for top 50 videos uploaded last week, 28 new videos uploaded yesterday.
Playtime in the last 2 weeks: 02:06 (average) 02:06 (median)
Playtime total: 03:34 (average) 04:08 (median)

Steam Spy is still in beta, so expect major bugs.

Owners data:

Access restricted.

This feature is only available to users with special access rights. Sorry.

If you want to proceed, you need to register or log in first and then back Steam Spy on Patreon. Look for Indie or Pro pledge.

Don't forget to use the same email as on Steam Spy!

Audience in 2 weeks:

Access restricted.

This feature is only available to users with special access rights. Sorry.

If you want to proceed, you need to register or log in first and then back Steam Spy on Patreon. Look for Indie or Pro pledge.

Don't forget to use the same email as on Steam Spy!

Peak daily concurrent players:

CCU data courtesy of SteamDB. Used with permission.

Hourly concurrent players:

Daily Twitch stats:

Hourly Twitch stats:

Followers over time

Access restricted.

This feature is only available to users with special access rights. Sorry.

If you want to proceed, you need to register or log in first and then back Steam Spy on Patreon. Look for Indie or Pro pledge.

Don't forget to use the same email as on Steam Spy!

Views for top 50 videos on YouTube for this game:

Games similar to this one:

# Game Release date
Price
Score rank
(Userscore / Metascore)
Owners
Players
Playtime (Median)
1 Garshasp: Temple of the Dragon Sep 24, 2012 $4.99N/A (N/A)20,000 .. 50,0000%00:00 (00:00)
2 DogFighter Jun 14, 2010 $2.99N/A (N/A)200,000 .. 500,0000%00:00 (00:00)
3 Warp Mar 21, 2012 $9.99N/A (N/A)20,000 .. 50,0000%00:00 (00:00)
4 Wasteland Angel Sep 1, 2011 $9.99N/A (N/A)100,000 .. 200,0000%00:00 (00:00)
5 SEGA Mega Drive and Genesis Classics Jun 1, 2010 $12.3N/A (N/A)1,000,000 .. 2,000,0001.39%01:00 (00:35)
6 Plain Sight Apr 5, 2010 $4.99N/A (N/A/76%)50,000 .. 100,00014.29%00:01 (00:00)
7 Project Freedom Oct 14, 2009 $0.98N/A (N/A)20,000 .. 50,0000%00:00 (00:00)
8 NyxQuest: Kindred Spirits Sep 27, 2010 $2.99N/A (N/A)20,000 .. 50,0000%00:00 (00:00)
9 Foreign Legion: Buckets of Blood Aug 4, 2009 $3.99N/A (N/A)100,000 .. 200,0000%00:00 (00:00)
10 The First Templar - Steam Special Edition May 12, 2011 $9.99N/A (N/A/57%)100,000 .. 200,0000%00:00 (00:00)
11 Kingpin — Life of Crime Jun 1, 1999 $9.99N/A (N/A)20,000 .. 50,0000%00:00 (00:00)
12 Painkiller Redemption Feb 25, 2011 $4.99N/A (N/A/43%)200,000 .. 500,0000%00:00 (00:00)
13 Painkiller: Resurrection Oct 27, 2009 $9.99N/A (N/A/38%)100,000 .. 200,0000%00:00 (00:00)
14 Capsized Apr 29, 2011 $9.99N/A (N/A/80%)200,000 .. 500,0000%00:00 (00:00)
15 AquaNox Nov 30, 2001 $4.99N/A (N/A/67%)100,000 .. 200,0000%00:00 (00:00)
16 Garshasp: The Monster Slayer May 9, 2011 $4.99N/A (N/A/49%)50,000 .. 100,0000%00:00 (00:00)
17 AquaNox 2: Revelation Aug 19, 2003 $4.99N/A (N/A/59%)100,000 .. 200,0000%00:00 (00:00)
18 Strike Suit Infinity Apr 30, 2013 $6.99N/A (N/A/66%)100,000 .. 200,0000%00:00 (00:00)
19 Sacred Citadel Apr 16, 2013 $9.99N/A (N/A/61%)500,000 .. 1,000,0000%00:00 (00:00)
20 Kill to Collect Apr 6, 2016 $9.99N/A (N/A/57%)20,000 .. 50,0000%00:00 (00:00)
21 Blades of Time Apr 20, 2012 $9.99N/A (N/A/63%)200,000 .. 500,0000%00:00 (00:00)
22 Bunch of Heroes Sep 21, 2011 $4.99N/A (N/A)100,000 .. 200,0000%00:00 (00:00)
23 Kung Fu Strike - The Warrior's Rise Jul 24, 2012 $9.99N/A (N/A)100,000 .. 200,0000%00:00 (00:00)
24 Serious Sam Double D XXL Aug 30, 2011 $9.99N/A (N/A)200,000 .. 500,0000%00:00 (00:00)
25 Intrusion 2 Sep 11, 2012 $9.99N/A (N/A/80%)200,000 .. 500,0000%00:00 (00:00)
26 Global Ops: Commando Libya Oct 26, 2011 $4.99N/A (N/A/37%)50,000 .. 100,0000%00:00 (00:00)
27 Karateka Dec 3, 2012 $3.99N/A (N/A/48%)50,000 .. 100,0000%00:00 (00:00)
28 Choplifter HD Jan 11, 2012 N/AN/A (N/A/65%)20,000 .. 50,0000%00:00 (00:00)
29 NiGHTS Into Dreams Dec 17, 2012 $1.19N/A (N/A)200,000 .. 500,0000%00:00 (00:00)
30 Sonic the Hedgehog 4 - Episode II May 15, 2012 $9.99N/A (N/A/54%)100,000 .. 200,0007.14%00:01 (00:00)
31 Miner Wars 2081 Nov 28, 2012 $4.99N/A (N/A/52%)50,000 .. 100,0000%00:00 (00:00)
32 Foreign Legion: Multi Massacre Jul 9, 2012 $4.99N/A (N/A)20,000 .. 50,0000%00:00 (00:00)
33 Thunder Wolves May 15, 2013 $9.99N/A (N/A/69%)100,000 .. 200,0000%00:00 (00:00)
34 Painkiller: Recurring Evil Feb 29, 2012 $9.99N/A (N/A/38%)50,000 .. 100,0000%00:00 (00:00)
35 Vertical Drop Heroes HD Jul 25, 2014 $6.99N/A (N/A/70%)100,000 .. 200,0006.25%00:01 (00:00)
36 BlackSoul: Extended Edition Feb 26, 2014 $3.99N/A (N/A)200,000 .. 500,0000%00:00 (00:00)
37 Raiden IV: OverKill Sep 3, 2015 $14.99N/A (N/A)50,000 .. 100,0000%00:00 (00:00)
38 Alone in the Dark: Illumination Jun 11, 2015 $19.99N/A (N/A)0 .. 20,0000%00:00 (00:00)
39 The Chaos Engine Aug 29, 2013 $9.99N/A (N/A/40%)50,000 .. 100,0000%00:00 (00:00)
40 Tango Fiesta Sep 24, 2015 $9.99N/A (N/A)0 .. 20,0000%00:00 (00:00)
41 Blood Omen 2: Legacy of Kain Mar 29, 2002 $6.99N/A (N/A)200,000 .. 500,0000%00:00 (00:00)
42 Eterium Apr 15, 2014 $4.99N/A (N/A)100,000 .. 200,0000%00:00 (00:00)
43 Strike Vector Jan 28, 2014 $11.99N/A (N/A/73%)100,000 .. 200,0000%00:00 (00:00)
44 Kraven Manor Sep 26, 2014 FreeN/A (N/A/58%)100,000 .. 200,0000%00:00 (00:00)
45 Shadow Man Mar 9, 1999 $4.99N/A (N/A)50,000 .. 100,0000%00:00 (00:00)
46 Chernobyl Commando Mar 8, 2013 $9.99N/A (N/A)50,000 .. 100,0000%00:00 (00:00)
47 YAIBA: NINJA GAIDEN Z Mar 21, 2014 $29.99N/A (N/A/49%)20,000 .. 50,0000%00:00 (00:00)
48 The Way May 20, 2016 $14.99N/A (N/A/67%)100,000 .. 200,0000%00:00 (00:00)
49 Hot Tin Roof: The Cat That Wore A Fedora Feb 20, 2015 $14.99N/A (N/A/66%)100,000 .. 200,0000%00:00 (00:00)
50 OCEAN CITY RACING Aug 27, 2016 $1.99N/A (N/A)50,000 .. 100,0000%00:00 (00:00)
51 Alone in the Dark Nov 18, 2008 $9.99N/A (N/A/55%)20,000 .. 50,0000%00:00 (00:00)
52 QUAKE Mission Pack 1: Scourge of Armagon Feb 28, 1997 $2.99N/A (N/A)200,000 .. 500,0000%00:00 (00:00)
53 Tom Clancy's Ghost Recon Desert Siege Mar 26, 2002 $4.99N/A (N/A/82%)100,000 .. 200,0000%00:00 (00:00)
54 Frontlines: Fuel of War Feb 27, 2008 $19.99N/A (N/A/73%)200,000 .. 500,0000%00:00 (00:00)
55 Tom Clancy's Rainbow Six Lockdown Feb 14, 2006 $9.99N/A (N/A/59%)50,000 .. 100,0000%00:00 (00:00)
56 TimeShift Oct 30, 2007 $19.99N/A (N/A/71%)100,000 .. 200,0000%00:00 (00:00)
57 The Ship: Single Player Nov 20, 2006 $9.99N/A (N/A)100,000 .. 200,0000%00:00 (00:00)
58 Larva Mortus Mar 19, 2009 $4.99N/A (N/A/64%)100,000 .. 200,0000%00:00 (00:00)
59 Alpha Prime Nov 7, 2007 $4.99N/A (N/A/59%)200,000 .. 500,0000%00:00 (00:00)
60 Damnation May 22, 2009 $9.99N/A (N/A/41%)50,000 .. 100,0000%00:00 (00:00)
61 Painkiller Overdose Oct 30, 2007 $4.99N/A (N/A/65%)200,000 .. 500,0000%00:00 (00:00)
62 Unreal 2: The Awakening Feb 3, 2003 $14.99N/A (N/A/75%)200,000 .. 500,0000%00:00 (00:00)
63 Judge Dredd: Dredd vs. Death Feb 28, 2005 $7.99N/A (N/A/55%)50,000 .. 100,0000%00:00 (00:00)
64 Prince of Persia: Warrior Within Nov 30, 2004 $9.99N/A (N/A/83%)200,000 .. 500,0000%00:00 (00:00)
65 Project: Snowblind Feb 22, 2005 $5.99N/A (N/A/76%)100,000 .. 200,0000%00:00 (00:00)
66 Prince of Persia: The Two Thrones Dec 7, 2005 $9.99N/A (N/A/85%)200,000 .. 500,0000%00:00 (00:00)
67 Conflict: Denied Ops Feb 8, 2008 $5.99N/A (N/A/58%)50,000 .. 100,0000%00:00 (00:00)
68 Tom Clancy's Rainbow Six Vegas Dec 12, 2006 $9.99N/A (N/A/85%)100,000 .. 200,0000%00:00 (00:00)
69 Phantaruk Aug 16, 2016 $4.99N/A (N/A/53%)20,000 .. 50,0000%00:00 (00:00)
70 SHOCK TROOPERS May 18, 2016 $7.99N/A (N/A)20,000 .. 50,0000%00:00 (00:00)
71 Yomawari: Night Alone Oct 25, 2016 $9.99N/A (N/A)50,000 .. 100,0000%00:00 (00:00)
72 Kung Fury: Street Rage May 28, 2015 N/AN/A (N/A)100,000 .. 200,0000%00:00 (00:00)
73 Hail to the King: Deathbat Oct 30, 2014 $5.99N/A (N/A)0 .. 20,0000%00:00 (00:00)
74 Cruel Arena Aug 18, 2015 $0.99N/A (N/A)200,000 .. 500,0000%00:00 (00:00)
75 Down To One Jan 7, 2016 $0.99N/A (N/A)100,000 .. 200,0000%00:00 (00:00)
76 Glass Wing Jun 24, 2015 FreeN/A (N/A)50,000 .. 100,0000%00:00 (00:00)
77 Supercharged Robot VULKAISER Jun 4, 2015 $2.49N/A (N/A)20,000 .. 50,0000%00:00 (00:00)
78 Zanzarah: The Hidden Portal Aug 20, 2015 $0.79N/A (N/A)100,000 .. 200,0000%00:00 (00:00)
79 On My Own Feb 26, 2016 $4.99N/A (N/A)0 .. 20,0000%00:00 (00:00)
80 Skautfold: Shrouded in Sanity May 27, 2016 $2.49N/A (N/A)0 .. 20,0000%00:00 (00:00)
81 Rad Rodgers: World One Dec 1, 2016 $19.99N/A (N/A/72%)0 .. 20,0000%00:00 (00:00)
82 Spell Fighter VR Mar 1, 2016 FreeN/A (N/A)100,000 .. 200,0000%00:00 (00:00)
83 Mega Man Legacy Collection / ロックマン クラシックス コレクション Aug 24, 2015 $14.99N/A (N/A/85%)200,000 .. 500,0002.86%00:01 (00:00)
84 Zenodyne R May 29, 2016 $9.99N/A (N/A)0 .. 20,0000%00:00 (00:00)
85 METAL SLUG 2 Apr 14, 2016 $6.99N/A (N/A)50,000 .. 100,0000%00:00 (00:00)
86 Scrap Garden - The Day Before Oct 7, 2016 FreeN/A (N/A)100,000 .. 200,0000%00:00 (00:00)
87 THOTH Oct 7, 2016 $4.99N/A (N/A)50,000 .. 100,0000%00:00 (00:00)
88 Unbox: Newbie's Adventure Sep 5, 2016 $19.99N/A (N/A/68%)50,000 .. 100,0000%00:00 (00:00)
89 STAR WARS SHADOWS OF THE EMPIRE Feb 7, 2017 $5.99N/A (N/A)200,000 .. 500,0000%00:00 (00:00)
90 Zombie Shooter Dec 29, 2007 $4.99N/A (N/A)100,000 .. 200,0000%00:00 (00:00)
91 Alien Breed 2: Assault Sep 22, 2010 $1.99N/A (N/A/63%)200,000 .. 500,0000%00:00 (00:00)
92 Zombie Shooter 2 Sep 23, 2009 $9.99N/A (N/A)100,000 .. 200,0000%00:00 (00:00)
93 Blacklight: Tango Down Jul 14, 2010 $0.99N/A (N/A/65%)50,000 .. 100,0000%00:00 (00:00)
94 Rayman Raving Rabbids Mar 27, 2007 $9.99N/A (N/A/58%)20,000 .. 50,0000%00:00 (00:00)
95 Booster Trooper Apr 16, 2010 $1.99N/A (N/A)50,000 .. 100,0000%00:00 (00:00)
96 Legendary Dec 1, 2008 $1.99N/A (N/A/50%)200,000 .. 500,0000%00:00 (00:00)
97 Sam & Max 301: The Penal Zone Jun 16, 2020 $19.99N/A (N/A)0 .. 20,0000%00:00 (00:00)
98 Rocket Knight May 11, 2010 $14.99N/A (N/A/63%)0 .. 20,0000%00:00 (00:00)
99 Iron Grip: Warlord Dec 5, 2008 N/AN/A (N/A/59%)100,000 .. 200,0000%00:00 (00:00)
100 Prince of Persia Dec 10, 2008 $9.99N/A (N/A/82%)200,000 .. 500,0000%00:00 (00:00)
101 Delta Force: Task Force Dagger Jun 27, 2002 $9.99N/A (N/A/51%)20,000 .. 50,0000%00:00 (00:00)
102 Bionic Commando Jul 28, 2009 $9.99N/A (N/A/69%)200,000 .. 500,0000%00:00 (00:00)
103 Delta Force: Black Hawk Down Mar 24, 2003 $14.99N/A (N/A/77%)100,000 .. 200,0000%00:00 (00:00)
104 Bionic Commando: Rearmed Aug 14, 2008 $9.99N/A (N/A/86%)200,000 .. 500,0000%00:00 (00:00)
105 Alien Shooter: Revisited Apr 15, 2009 $4.99N/A (N/A)200,000 .. 500,00025%02:06 (00:42)
106 Alien Breed: Impact Jun 3, 2010 $1.99N/A (N/A/64%)200,000 .. 500,0000%00:00 (00:00)

Geography of active players over time, share:

Access restricted.

This feature is only available to users with special access rights. Sorry.

If you want to proceed, you need to register or log in first and then back Steam Spy on Patreon. Look for Indie or Pro pledge.

Don't forget to use the same email as on Steam Spy!

Tags over time:

Access restricted.

This feature is only available to users with special access rights. Sorry.

If you want to proceed, you need to register or log in first and then back Steam Spy on Patreon. Look for Indie or Pro pledge.

Don't forget to use the same email as on Steam Spy!

Owners of this game also own:

Access restricted.

This feature is only available to users with special access rights. Sorry.

If you want to proceed, you need to register or log in first and then back Steam Spy on Patreon. Look for Indie or Pro pledge.

Don't forget to use the same email as on Steam Spy!

Playtime distribution:

Access restricted.

This feature is only available to users with special access rights. Sorry.

If you want to proceed, you need to register or log in first and then back Steam Spy on Patreon. Look for Indie or Pro pledge.

Don't forget to use the same email as on Steam Spy!

Playtime (2 weeks):

Access restricted.

This feature is only available to users with special access rights. Sorry.

If you want to proceed, you need to register or log in first and then back Steam Spy on Patreon. Look for Indie or Pro pledge.

Don't forget to use the same email as on Steam Spy!

User reviews:

Login required.

Please register or log in to see this information.